Urmi, Russia
Current Conditions -  °F | °C
As of 8:30 PM on Thursday 18 Dec 2014 (Local Time) from UHHH Reporting Station
Clear Clear  
Wind Chill: -21°   Ceiling: Unl
Heat Index: -9°   Visibility: 6mi
Dew Point: -15°   Wind: 4mph
Humidity: 77%   Direction: 200°SSW
Pressure: 30.36"   Gusts: NA
Location:  49.4°N, 133.23°E
Report Text: UHHH 181030Z 20002MPS 150V240 CAVOK M23/M26 Q1028 NOSIG RMKQFE764/1019 23490540
Loading
Personal Weather Stations






























Interactive Weather Map New forecast layout! Learn more

10-Day Weather Forecast

Advertisements
Track Severe Weather on mobile